Time;durP1;ratioP1;P1;durP2;ratioP2;P2;SDS_P1;SDS_P2;PMS_P1;PMS_P2;Temp;Humidity;BMP_temperature;BMP_pressure;BME280_temperature;BME280_humidity;BME280_pressure;Samples;Min_cycle;Max_cycle;Signal;HPM_P1;HPM_P2
2022/06/03 00:01:49;;;;;;;;;;;19.40;54.90;;;;;;4953843;28;20035;-82
2022/06/03 00:04:27;;;;;;;2.75;2.00;;;19.40;54.70;;;;;;4955113;28;19918;-83
2022/06/03 00:07:07;;;;;;;2.72;2.05;;;19.50;54.30;;;;;;4953949;29;20031;-82
2022/06/03 00:09:51;;;;;;;3.88;2.30;;;19.50;54.10;;;;;;4955069;29;20493;-83
2022/06/03 00:12:48;;;;;;;4.05;1.75;;;19.50;54.00;;;;;;4953531;28;20031;-83
2022/06/03 00:15:28;;;;;;;2.45;2.20;;;19.40;54.50;;;;;;4955253;28;20102;-83
2022/06/03 00:18:13;;;;;;;2.22;1.95;;;19.40;54.20;;;;;;4953845;28;20051;-83
2022/06/03 00:20:42;;;;;;;4.63;2.13;;;19.40;54.90;;;;;;4957334;28;20023;-82
2022/06/03 00:23:13;;;;;;;3.20;1.95;;;19.30;54.80;;;;;;4958699;28;20419;-82
2022/06/03 00:26:06;;;;;;;2.67;2.08;;;19.30;55.30;;;;;;4958902;28;20399;-83
2022/06/03 00:29:20;;;;;;;2.35;1.88;;;19.20;55.30;;;;;;4956230;29;20032;-83
2022/06/03 00:32:04;;;;;;;2.33;1.70;;;19.10;54.60;;;;;;4957221;28;20394;-82
2022/06/03 00:35:12;;;;;;;2.97;2.10;;;19.10;55.10;;;;;;4939851;29;20106;-83
2022/06/03 00:37:57;;;;;;;3.33;2.03;;;19.10;55.10;;;;;;4939465;29;20028;-83
2022/06/03 00:40:53;;;;;;;2.75;2.15;;;19.10;54.80;;;;;;4954130;28;20035;-82
2022/06/03 00:43:22;;;;;;;4.18;2.00;;;19.10;54.60;;;;;;4939483;29;20042;-82
2022/06/03 00:45:53;;;;;;;2.50;2.20;;;19.10;54.20;;;;;;4937730;29;20032;-82
2022/06/03 00:48:34;;;;;;;2.88;2.13;;;19.10;55.20;;;;;;4939218;29;20391;-83
2022/06/03 00:51:33;;;;;;;2.60;2.00;;;19.00;54.90;;;;;;4939174;29;20027;-82
2022/06/03 00:54:23;;;;;;;2.83;2.38;;;19.00;55.10;;;;;;4939218;29;20554;-82
2022/06/03 00:56:54;;;;;;;3.88;2.28;;;19.10;54.60;;;;;;4938900;29;20036;-82
2022/06/03 00:59:42;;;;;;;3.05;1.88;;;19.00;54.50;;;;;;4939273;29;20063;-82
2022/06/03 01:02:26;;;;;;;2.95;2.10;;;19.00;54.70;;;;;;4939191;29;20043;-81
2022/06/03 01:05:09;;;;;;;4.47;2.30;;;18.90;55.00;;;;;;4939023;29;20036;-82
2022/06/03 01:08:05;;;;;;;2.53;2.15;;;18.80;55.00;;;;;;4938818;29;20113;-82
2022/06/03 01:10:40;;;;;;;2.78;1.85;;;18.80;55.40;;;;;;4938891;29;20046;-81
2022/06/03 01:13:27;;;;;;;2.40;1.85;;;18.70;55.50;;;;;;4938772;29;20038;-82
2022/06/03 01:16:22;;;;;;;2.75;2.10;;;18.60;55.60;;;;;;4938758;29;20106;-81
2022/06/03 01:19:21;;;;;;;3.60;1.92;;;18.60;55.70;;;;;;4937466;29;20038;-81
2022/06/03 01:22:28;;;;;;;2.83;2.33;;;18.60;55.40;;;;;;4954569;29;20093;-81
2022/06/03 01:25:12;;;;;;;2.20;2.00;;;18.50;56.20;;;;;;4945711;29;20031;-81
2022/06/03 01:28:00;;;;;;;2.72;2.03;;;18.60;55.50;;;;;;4956030;28;20027;-81
2022/06/03 01:30:31;;;;;;;3.15;2.15;;;18.50;55.70;;;;;;4937911;29;20438;-81
2022/06/03 01:33:15;;;;;;;2.25;1.92;;;18.40;55.30;;;;;;4946487;29;20565;-81
2022/06/03 01:35:50;;;;;;;3.47;2.25;;;18.50;55.10;;;;;;4956417;28;20074;-81
2022/06/03 01:38:36;;;;;;;2.95;2.28;;;18.50;55.10;;;;;;4948529;28;20094;-81
2022/06/03 01:41:32;;;;;;;3.63;2.25;;;18.40;55.60;;;;;;4938287;29;20727;-81
2022/06/03 01:44:29;;;;;;;2.53;1.95;;;18.30;55.60;;;;;;4938040;29;20593;-81
2022/06/03 01:47:13;;;;;;;3.03;2.15;;;18.30;55.70;;;;;;4936375;29;20031;-81
2022/06/03 01:49:57;;;;;;;2.78;2.15;;;18.30;55.80;;;;;;4952985;28;20083;-81
2022/06/03 01:52:29;;;;;;;2.85;1.98;;;18.30;55.70;;;;;;4938058;29;20039;-81
2022/06/03 01:55:35;;;;;;;2.97;2.10;;;18.30;55.50;;;;;;4937891;29;20022;-81
2022/06/03 01:58:19;;;;;;;4.05;2.45;;;18.20;55.90;;;;;;4941929;29;20127;-81
2022/06/03 02:00:54;;;;;;;2.50;1.92;;;18.10;55.70;;;;;;4956997;28;20450;-81
2022/06/03 02:03:49;;;;;;;4.05;2.10;;;18.20;55.60;;;;;;4957211;28;20031;-81
2022/06/03 02:06:44;;;;;;;2.15;1.88;;;18.20;55.90;;;;;;4947393;28;20425;-81
2022/06/03 02:09:36;;;;;;;2.60;2.20;;;18.10;55.70;;;;;;4967202;28;20079;-81
2022/06/03 02:12:15;;;;;;;2.67;2.20;;;18.10;55.60;;;;;;4937571;29;20103;-81
2022/06/03 02:14:56;;;;;;;5.35;2.55;;;18.10;55.50;;;;;;4954102;29;20023;-81
2022/06/03 02:17:41;;;;;;;2.13;1.73;;;18.00;55.50;;;;;;4956820;28;20031;-81
2022/06/03 02:20:25;;;;;;;2.05;1.85;;;18.10;55.60;;;;;;4954622;28;20046;-81
2022/06/03 02:23:16;;;;;;;2.45;2.05;;;18.00;55.60;;;;;;4956323;28;20024;-81
2022/06/03 02:26:04;;;;;;;2.53;1.92;;;18.00;55.40;;;;;;4956814;28;20063;-81
2022/06/03 02:28:32;;;;;;;3.75;2.00;;;18.00;55.30;;;;;;4966369;28;20035;-81
2022/06/03 02:31:14;;;;;;;2.55;1.90;;;18.10;55.40;;;;;;4937819;29;20034;-81
2022/06/03 02:34:07;;;;;;;3.33;2.25;;;18.10;55.10;;;;;;4951160;29;20371;-81
2022/06/03 02:36:33;;;;;;;2.95;2.00;;;18.10;55.00;;;;;;4955332;28;20028;-81
2022/06/03 02:38:58;;;;;;;2.97;1.92;;;18.00;56.00;;;;;;4956423;28;20025;-81
2022/06/03 02:42:03;;;;;;;3.05;1.90;;;18.00;56.20;;;;;;4955868;28;20051;-81
2022/06/03 02:44:47;;;;;;;6.95;1.95;;;18.00;56.40;;;;;;4955984;28;20049;-81
2022/06/03 02:47:31;;;;;;;2.90;1.77;;;18.00;55.70;;;;;;4937015;29;20047;-81
2022/06/03 02:50:31;;;;;;;4.45;2.15;;;18.00;55.40;;;;;;4942774;29;20035;-81
2022/06/03 02:53:24;;;;;;;2.37;1.90;;;17.90;55.50;;;;;;4956246;28;20106;-81
2022/06/03 02:56:22;;;;;;;3.15;2.05;;;17.90;55.90;;;;;;4954870;28;20366;-82
2022/06/03 02:59:08;;;;;;;2.15;1.70;;;17.80;56.50;;;;;;4954380;28;20082;-81
2022/06/03 03:01:36;;;;;;;3.28;2.20;;;17.80;56.60;;;;;;4938377;29;20095;-81
2022/06/03 03:04:49;;;;;;;3.08;1.88;;;17.70;56.00;;;;;;4954082;28;20118;-81
2022/06/03 03:07:36;;;;;;;2.47;2.25;;;17.80;56.60;;;;;;4949296;28;20063;-81
2022/06/03 03:10:35;;;;;;;2.90;2.10;;;17.80;55.80;;;;;;4935721;29;20023;-82
2022/06/03 03:13:20;;;;;;;3.00;2.08;;;17.70;55.90;;;;;;4935124;29;20422;-81
2022/06/03 03:16:07;;;;;;;2.40;1.60;;;17.80;55.90;;;;;;4939026;29;20130;-81
2022/06/03 03:19:17;;;;;;;5.15;2.03;;;17.80;56.20;;;;;;4954276;28;20114;-81
2022/06/03 03:21:55;;;;;;;2.90;1.63;;;17.80;55.60;;;;;;4949099;29;20042;-81
2022/06/03 03:25:02;;;;;;;2.90;2.17;;;17.80;55.80;;;;;;4954639;28;20690;-81
2022/06/03 03:27:41;;;;;;;4.97;1.90;;;17.80;56.20;;;;;;4946936;29;20043;-81
2022/06/03 03:30:32;;;;;;;3.60;2.10;;;17.80;56.00;;;;;;4955642;28;20034;-81
2022/06/03 03:33:10;;;;;;;2.35;1.83;;;17.80;55.50;;;;;;4954484;28;20674;-81
2022/06/03 03:35:55;;;;;;;3.28;1.90;;;17.70;55.60;;;;;;4952655;28;20031;-81
2022/06/03 03:38:24;;;;;;;2.70;2.00;;;17.70;56.60;;;;;;4947042;28;20030;-80
2022/06/03 03:41:05;;;;;;;3.90;1.83;;;17.70;55.90;;;;;;4934936;29;20052;-81
2022/06/03 03:43:59;;;;;;;3.25;1.83;;;17.60;55.70;;;;;;4950712;28;20557;-81
2022/06/03 03:46:40;;;;;;;3.80;1.73;;;17.60;55.50;;;;;;4934861;29;20036;-81
2022/06/03 03:49:31;;;;;;;;;;;;;;;;;;;;;
2022/06/03 03:52:05;;;;;;;3.25;1.90;;;17.60;56.30;;;;;;4935890;29;20042;-81
2022/06/03 03:54:37;;;;;;;2.53;1.83;;;17.70;56.30;;;;;;4935614;29;20031;-81
2022/06/03 03:57:35;;;;;;;1.95;1.25;;;17.60;55.50;;;;;;4935917;29;20059;-81
2022/06/03 04:00:07;;;;;;;2.58;1.67;;;17.70;55.30;;;;;;4936122;29;20031;-81
2022/06/03 04:02:48;;;;;;;4.10;1.67;;;17.70;55.20;;;;;;4950661;28;20031;-81
2022/06/03 04:05:33;;;;;;;1.60;1.35;;;17.80;54.80;;;;;;4954953;29;20106;-81
2022/06/03 04:08:26;;;;;;;2.38;1.65;;;17.80;54.50;;;;;;4949744;28;20032;-81
2022/06/03 04:10:57;;;;;;;5.88;1.60;;;17.80;54.20;;;;;;4935910;29;20107;-81
2022/06/03 04:13:42;;;;;;;4.05;1.73;;;17.90;54.00;;;;;;4936542;29;20111;-81
2022/06/03 04:16:37;;;;;;;2.05;1.40;;;17.90;53.20;;;;;;4954967;28;20111;-81
2022/06/03 04:19:15;;;;;;;1.75;1.40;;;17.90;53.30;;;;;;4955072;28;20034;-81
2022/06/03 04:22:03;;;;;;;2.22;1.80;;;18.00;53.10;;;;;;4943286;28;20039;-81
2022/06/03 04:24:32;;;;;;;1.88;1.55;;;18.00;53.10;;;;;;4934575;29;20031;-81
2022/06/03 04:27:40;;;;;;;2.13;1.42;;;18.00;53.10;;;;;;4942873;29;20058;-81
2022/06/03 04:30:31;;;;;;;2.33;1.55;;;18.10;53.00;;;;;;4943552;29;20041;-81
2022/06/03 04:33:15;;;;;;;4.32;1.70;;;18.10;53.40;;;;;;4943603;29;20083;-81
2022/06/03 04:35:47;;;;;;;1.88;1.40;;;18.10;53.10;;;;;;4953415;28;20063;-81
2022/06/03 04:38:18;;;;;;;2.63;1.60;;;18.10;53.10;;;;;;4952489;28;20031;-81
2022/06/03 04:41:13;;;;;;;1.80;1.25;;;18.10;53.50;;;;;;4936500;29;20078;-80
2022/06/03 04:44:04;;;;;;;2.78;1.23;;;18.10;53.30;;;;;;4948087;28;20055;-78
2022/06/03 04:47:01;;;;;;;2.97;2.03;;;18.10;54.10;;;;;;4969161;28;20139;-75
2022/06/03 04:50:14;;;;;;;2.92;1.42;;;18.10;54.40;;;;;;4955771;28;20039;-77
2022/06/03 04:53:11;;;;;;;2.15;1.70;;;18.20;54.00;;;;;;4932643;29;20035;-76
2022/06/03 04:55:55;;;;;;;1.98;1.35;;;18.20;53.90;;;;;;4934438;29;20079;-74
2022/06/03 04:58:36;;;;;;;3.08;2.03;;;18.20;54.00;;;;;;4954264;28;20050;-74
2022/06/03 05:01:43;;;;;;;2.20;1.48;;;18.10;54.70;;;;;;4963520;28;20031;-74
2022/06/03 05:04:28;;;;;;;2.65;1.42;;;18.00;54.70;;;;;;4949187;29;20533;-76
2022/06/03 05:07:18;;;;;;;2.40;1.50;;;18.10;54.30;;;;;;4939815;29;20046;-76
2022/06/03 05:09:50;;;;;;;4.00;1.90;;;18.20;54.30;;;;;;4955662;29;20027;-75
2022/06/03 05:12:48;;;;;;;2.55;1.60;;;18.20;53.80;;;;;;4953878;29;20398;-75
2022/06/03 05:15:35;;;;;;;3.13;1.60;;;18.20;54.30;;;;;;4951462;28;20071;-75
2022/06/03 05:18:01;;;;;;;2.38;1.40;;;18.20;54.30;;;;;;4965879;28;20054;-74
2022/06/03 05:20:48;;;;;;;4.78;1.80;;;18.30;54.00;;;;;;4952054;28;20055;-74
2022/06/03 05:23:33;;;;;;;4.13;1.88;;;18.30;54.20;;;;;;4956034;28;20027;-75
2022/06/03 05:26:21;;;;;;;2.70;1.52;;;18.30;54.00;;;;;;4951394;29;20118;-74
2022/06/03 05:29:20;;;;;;;2.00;1.55;;;18.30;54.60;;;;;;4950764;28;20031;-74
2022/06/03 05:32:13;;;;;;;2.53;1.52;;;18.30;54.30;;;;;;4951117;29;20031;-77
2022/06/03 05:34:48;;;;;;;2.45;1.50;;;18.30;54.50;;;;;;4935729;29;20055;-77
2022/06/03 05:37:48;;;;;;;2.20;1.83;;;18.40;54.20;;;;;;4941760;29;20027;-77
2022/06/03 05:40:29;;;;;;;;;;;18.40;54.10;;;;;;4936205;29;20040;-77
2022/06/03 05:43:13;;;;;;;1.90;1.35;;;18.50;54.00;;;;;;4937390;29;19922;-77
2022/06/03 05:46:11;;;;;;;2.15;1.48;;;18.60;54.00;;;;;;4938092;29;20110;-78
2022/06/03 05:48:46;;;;;;;3.60;1.60;;;18.60;54.00;;;;;;4937966;29;20593;-78
2022/06/03 05:51:30;;;;;;;5.72;1.85;;;18.60;54.70;;;;;;4948968;28;20088;-77
2022/06/03 05:54:17;;;;;;;2.50;1.35;;;18.60;54.40;;;;;;4937887;29;20027;-77
2022/06/03 05:56:52;;;;;;;3.00;1.92;;;18.70;54.30;;;;;;4942469;29;20031;-78
2022/06/03 05:59:51;;;;;;;2.53;1.52;;;18.70;54.20;;;;;;4937957;29;20581;-77
2022/06/03 06:02:52;;;;;;;2.55;1.80;;;18.70;54.20;;;;;;4944933;29;20220;-77
2022/06/03 06:05:37;;;;;;;3.03;1.75;;;18.70;54.40;;;;;;4939318;29;20027;-77
2022/06/03 06:08:36;;;;;;;2.65;1.35;;;18.70;54.50;;;;;;4952353;29;20122;-77
2022/06/03 06:11:06;;;;;;;3.15;1.67;;;18.70;54.60;;;;;;4941141;29;20027;-77
2022/06/03 06:13:50;;;;;;;3.73;1.80;;;18.70;54.50;;;;;;4949631;28;20051;-77
2022/06/03 06:16:28;;;;;;;4.68;1.80;;;18.70;54.70;;;;;;4937616;29;20124;-77
2022/06/03 06:19:38;;;;;;;4.53;1.55;;;18.70;54.70;;;;;;4937886;29;20952;-77
2022/06/03 06:22:21;;;;;;;1.98;1.33;;;18.80;54.60;;;;;;4953643;29;20047;-77
2022/06/03 06:25:01;;;;;;;2.75;1.65;;;18.80;54.50;;;;;;4951906;29;20557;-77
2022/06/03 06:27:47;;;;;;;2.90;1.90;;;18.90;54.40;;;;;;4937185;29;20039;-77
2022/06/03 06:30:38;;;;;;;2.53;1.65;;;19.00;54.50;;;;;;4936295;29;20032;-77
2022/06/03 06:33:24;;;;;;;4.25;1.60;;;19.00;54.80;;;;;;4937580;29;20075;-77
2022/06/03 06:36:05;;;;;;;2.65;1.83;;;19.00;55.10;;;;;;4937424;29;20543;-77
2022/06/03 06:38:50;;;;;;;3.80;1.75;;;19.10;55.30;;;;;;4936991;29;20032;-77
2022/06/03 06:41:23;;;;;;;4.00;1.90;;;19.10;55.50;;;;;;4937170;29;20129;-77
2022/06/03 06:44:09;;;;;;;2.50;1.70;;;19.20;55.00;;;;;;4937021;29;20047;-77
2022/06/03 06:47:14;;;;;;;2.92;1.70;;;19.20;55.00;;;;;;4951593;29;20058;-77
2022/06/03 06:50:06;;;;;;;2.13;1.20;;;19.40;54.60;;;;;;4937244;29;20478;-77
2022/06/03 06:52:52;;;;;;;3.53;1.85;;;19.50;54.40;;;;;;4936933;29;20592;-77
2022/06/03 06:55:26;;;;;;;3.20;1.75;;;19.60;54.40;;;;;;4936799;29;20043;-77
2022/06/03 06:57:56;;;;;;;1.98;1.50;;;19.60;54.70;;;;;;4936658;29;20049;-77
2022/06/03 07:00:33;;;;;;;1.40;1.10;;;19.60;54.20;;;;;;4936939;29;20032;-77
2022/06/03 07:03:10;;;;;;;4.25;1.80;;;19.60;54.30;;;;;;4949734;29;20041;-77
2022/06/03 07:06:10;;;;;;;4.13;1.85;;;19.70;54.30;;;;;;4955798;28;20027;-77
2022/06/03 07:08:57;;;;;;;2.47;1.50;;;19.60;54.80;;;;;;4938112;28;20119;-77
2022/06/03 07:11:36;;;;;;;2.47;1.55;;;19.60;55.10;;;;;;4944255;29;20102;-77
2022/06/03 07:14:11;;;;;;;1.45;1.27;;;19.70;54.80;;;;;;4954890;28;20046;-77
2022/06/03 07:20:11;;;;;;;3.28;2.40;;;19.80;55.10;;;;;;4954999;29;20055;-77
2022/06/03 07:22:57;;;;;;;3.40;1.60;;;19.90;55.20;;;;;;4936504;29;20024;-77
2022/06/03 07:25:38;;;;;;;1.73;1.25;;;20.00;55.30;;;;;;4936323;29;20024;-78
2022/06/03 07:28:18;;;;;;;18.35;4.13;;;20.20;55.00;;;;;;4936172;29;20039;-77
2022/06/03 07:30:54;;;;;;;49.72;8.55;;;20.30;54.80;;;;;;4936687;29;20027;-77
2022/06/03 07:33:31;;;;;;;5.22;2.20;;;20.30;54.90;;;;;;4947247;29;20042;-77
2022/06/03 07:36:06;;;;;;;34.28;4.93;;;20.30;55.90;;;;;;4954352;28;20091;-77
2022/06/03 07:38:48;;;;;;;4.82;1.80;;;20.30;55.30;;;;;;4954984;28;20521;-77
2022/06/03 07:41:26;;;;;;;3.70;2.00;;;20.40;55.90;;;;;;4950781;29;20063;-77
2022/06/03 07:43:59;;;;;;;2.72;1.67;;;20.40;55.80;;;;;;4935935;29;20152;-77
2022/06/03 07:46:27;;;;;;;2.90;1.63;;;20.30;56.30;;;;;;4936013;29;20023;-77
2022/06/03 07:48:53;;;;;;;3.00;1.50;;;20.20;57.10;;;;;;4936172;29;20028;-77
2022/06/03 07:51:31;;;;;;;3.33;1.60;;;20.10;57.90;;;;;;4936129;29;20016;-77
2022/06/03 07:54:06;;;;;;;2.25;1.60;;;20.00;58.00;;;;;;4947982;29;20431;-77
2022/06/03 07:56:35;;;;;;;1.95;1.50;;;20.00;58.70;;;;;;4953866;28;20034;-77
2022/06/03 07:59:06;;;;;;;3.30;1.80;;;20.00;58.00;;;;;;4953853;28;20114;-77
2022/06/03 08:01:38;;;;;;;1.95;1.65;;;20.10;57.90;;;;;;4953751;29;20091;-77
2022/06/03 08:04:07;;;;;;;4.93;1.88;;;20.20;57.80;;;;;;4953765;28;20055;-78
2022/06/03 08:12:13;;;;;;;3.28;1.80;;;20.40;57.50;;;;;;4954809;29;20270;-77
2022/06/03 08:14:39;;;;;;;3.58;1.80;;;20.40;57.00;;;;;;4953782;28;20035;-77
2022/06/03 08:17:08;;;;;;;2.38;1.85;;;20.40;57.80;;;;;;4953630;29;20095;-77
2022/06/03 08:19:35;;;;;;;4.70;2.30;;;20.30;58.80;;;;;;4953927;28;20425;-77
2022/06/03 08:22:04;;;;;;;4.70;2.20;;;20.30;59.60;;;;;;4954887;28;20027;-77
2022/06/03 08:24:34;;;;;;;5.63;2.75;;;20.30;62.10;;;;;;4953820;28;20031;-78
2022/06/03 08:27:24;;;;;;;11.18;3.35;;;20.30;63.10;;;;;;4953471;28;20039;-77
2022/06/03 08:30:13;;;;;;;5.85;2.65;;;20.10;67.10;;;;;;4953846;28;20055;-77
2022/06/03 08:33:01;;;;;;;10.70;3.47;;;19.80;71.10;;;;;;4950536;28;20026;-77
2022/06/03 08:35:31;;;;;;;6.07;4.28;;;19.80;68.80;;;;;;4935675;29;20046;-77
2022/06/03 08:38:03;;;;;;;5.07;3.53;;;19.80;69.50;;;;;;4936042;29;20035;-77
2022/06/03 08:41:06;;;;;;;10.98;4.13;;;19.80;69.60;;;;;;4935748;29;20032;-78
2022/06/03 08:43:53;;;;;;;5.85;4.07;;;19.80;69.90;;;;;;4951962;29;20106;-77
2022/06/03 08:46:32;;;;;;;8.45;4.30;;;19.90;70.40;;;;;;4958405;29;20051;-77
2022/06/03 08:49:07;;;;;;;7.47;4.13;;;19.90;70.00;;;;;;4958423;28;20023;-77
2022/06/03 08:51:40;;;;;;;20.70;7.45;;;20.00;69.70;;;;;;4953035;28;20031;-77
2022/06/03 08:54:30;;;;;;;8.43;3.95;;;20.00;70.00;;;;;;4939187;29;20042;-77
2022/06/03 08:57:05;;;;;;;6.78;4.43;;;20.10;71.10;;;;;;4938952;29;20129;-77
2022/06/03 08:59:41;;;;;;;20.85;5.72;;;20.30;69.40;;;;;;4939183;29;20067;-77
2022/06/03 09:02:18;;;;;;;6.32;3.58;;;20.30;68.90;;;;;;4938980;29;20035;-78
2022/06/03 09:04:59;;;;;;;7.32;4.35;;;20.30;69.60;;;;;;4953739;28;20512;-77
2022/06/03 09:07:33;;;;;;;4.85;3.83;;;20.60;69.70;;;;;;4956137;29;20470;-77
2022/06/03 09:10:17;;;;;;;7.88;4.00;;;20.60;69.20;;;;;;4958063;29;20474;-78
2022/06/03 09:13:05;;;;;;;7.68;4.40;;;20.70;68.70;;;;;;4957865;28;20054;-77
2022/06/03 09:15:37;;;;;;;4.25;3.40;;;20.80;69.30;;;;;;4957765;29;20035;-78
2022/06/03 09:18:25;;;;;;;5.45;4.43;;;20.80;69.20;;;;;;4971558;28;20070;-78
2022/06/03 09:21:08;;;;;;;7.45;4.15;;;20.80;69.10;;;;;;4961850;28;20106;-77
2022/06/03 09:23:39;;;;;;;5.25;3.35;;;20.70;67.70;;;;;;4955433;28;20031;-77
2022/06/03 09:26:12;;;;;;;6.50;4.15;;;20.50;69.00;;;;;;4953080;29;20069;-77
2022/06/03 09:28:38;;;;;;;4.88;3.55;;;20.40;69.20;;;;;;4938475;29;20023;-77
2022/06/03 09:31:10;;;;;;;4.95;3.72;;;20.30;69.20;;;;;;4953362;28;20626;-77
2022/06/03 09:33:37;;;;;;;5.88;3.97;;;20.20;70.10;;;;;;4951690;29;20027;-77
2022/06/03 09:36:12;;;;;;;5.47;4.20;;;20.20;70.30;;;;;;4959316;28;20095;-77
2022/06/03 09:38:56;;;;;;;6.13;4.32;;;20.20;70.90;;;;;;4938755;29;20497;-77
2022/06/03 09:41:27;;;;;;;4.32;3.55;;;20.00;71.30;;;;;;4956390;29;20051;-77
2022/06/03 09:43:54;;;;;;;5.65;3.08;;;19.90;71.10;;;;;;4957189;28;20073;-77
2022/06/03 09:46:26;;;;;;;4.53;3.90;;;19.80;71.70;;;;;;4955882;28;20726;-77
2022/06/03 09:48:52;;;;;;;5.50;4.00;;;19.90;71.70;;;;;;4942556;28;20080;-77
2022/06/03 09:51:55;;;;;;;5.50;3.30;;;20.00;72.60;;;;;;4955366;28;20039;-77
2022/06/03 09:54:13;;;;;;;4.55;2.85;;;20.00;71.20;;;;;;4957442;28;20103;-77
2022/06/03 09:56:41;;;;;;;3.60;3.25;;;19.80;71.70;;;;;;4957092;28;20086;-77
2022/06/03 09:59:09;;;;;;;6.97;4.00;;;19.80;71.80;;;;;;4947773;28;20038;-77
2022/06/03 10:01:35;;;;;;;5.35;3.53;;;19.90;72.10;;;;;;4937830;29;20071;-77
2022/06/03 10:04:06;;;;;;;6.47;3.75;;;20.00;71.80;;;;;;4952593;29;20023;-77
2022/06/03 10:06:50;;;;;;;6.07;3.90;;;20.00;72.10;;;;;;4941586;29;20035;-77
2022/06/03 10:17:47;;;;;;;4.75;3.30;;;20.90;70.10;;;;;;4937908;29;20422;-77
2022/06/03 10:20:13;;;;;;;5.72;3.88;;;21.20;69.80;;;;;;4955345;28;20027;-77
2022/06/03 10:22:40;;;;;;;5.13;3.90;;;21.60;68.80;;;;;;4956670;28;20097;-77
2022/06/03 10:25:08;;;;;;;5.30;3.72;;;21.80;69.50;;;;;;4955580;29;20446;-77
2022/06/03 10:27:34;;;;;;;5.95;4.22;;;21.80;68.40;;;;;;4960376;28;20043;-77
2022/06/03 10:30:00;;;;;;;5.20;4.10;;;21.80;68.20;;;;;;4937791;29;20134;-77
2022/06/03 10:32:26;;;;;;;7.57;4.30;;;22.00;68.30;;;;;;4944776;29;20054;-77
2022/06/03 10:34:56;;;;;;;5.70;3.20;;;22.30;67.60;;;;;;4956463;28;20478;-77
2022/06/03 10:37:24;;;;;;;;;;;22.40;65.80;;;;;;4954572;28;20039;-77
2022/06/03 10:39:53;;;;;;;7.78;4.50;;;22.40;65.30;;;;;;4956142;28;19938;-77
2022/06/03 10:42:21;;;;;;;;;;;22.40;66.60;;;;;;4955812;28;20058;-77
2022/06/03 10:44:50;;;;;;;5.95;3.50;;;22.30;66.40;;;;;;4952149;28;19985;-77
2022/06/03 10:47:21;;;;;;;9.00;3.75;;;22.30;66.60;;;;;;4938049;29;20486;-77
2022/06/03 10:49:58;;;;;;;12.93;4.75;;;22.40;66.10;;;;;;4939100;28;20048;-77
2022/06/03 11:01:07;;;;;;;7.72;3.17;;;22.90;64.30;;;;;;4937083;29;20038;-77
2022/06/03 11:03:34;;;;;;;4.40;3.72;;;22.70;64.60;;;;;;4934973;29;20372;-77
2022/06/03 11:06:14;;;;;;;6.78;3.17;;;22.80;65.40;;;;;;4951573;28;20054;-77
2022/06/03 11:08:49;;;;;;;12.82;4.15;;;22.90;65.30;;;;;;4936658;29;20035;-77
2022/06/03 11:11:28;;;;;;;3.53;2.92;;;23.00;63.00;;;;;;4957579;28;20714;-77
2022/06/03 11:13:54;;;;;;;;;;;23.10;63.10;;;;;;4950469;28;20038;-77
2022/06/03 11:16:22;;;;;;;4.32;3.28;;;23.10;63.30;;;;;;4936496;29;19910;-77
2022/06/03 11:18:49;;;;;;;3.38;2.95;;;23.10;63.70;;;;;;4936629;29;20050;-77
2022/06/03 11:21:28;;;;;;;5.32;2.50;;;23.20;65.30;;;;;;4953582;28;20031;-77
2022/06/03 11:23:57;;;;;;;4.05;2.80;;;23.40;63.60;;;;;;4936766;29;20442;-77
2022/06/03 11:26:45;;;;;;;6.57;2.10;;;23.80;64.60;;;;;;4936462;29;20040;-77
2022/06/03 11:29:15;;;;;;;3.58;2.83;;;23.80;62.20;;;;;;4936718;29;20030;-77
2022/06/03 11:31:44;;;;;;;2.97;2.25;;;23.90;63.60;;;;;;4950998;29;20144;-77
2022/06/03 11:34:35;;;;;;;5.60;2.63;;;23.80;61.40;;;;;;4952649;29;20031;-77
2022/06/03 11:37:23;;;;;;;4.63;2.63;;;23.80;63.80;;;;;;4955413;28;20560;-77
2022/06/03 11:39:51;;;;;;;3.88;2.40;;;23.80;64.50;;;;;;4955464;28;20114;-77
2022/06/03 11:42:22;;;;;;;4.18;2.65;;;24.00;62.50;;;;;;4937961;28;20506;-77
2022/06/03 11:44:55;;;;;;;3.03;2.63;;;24.10;61.50;;;;;;4950780;29;20420;-77
2022/06/03 11:47:29;;;;;;;3.70;2.38;;;24.00;61.60;;;;;;4936095;29;20119;-77
2022/06/03 11:49:55;;;;;;;5.88;2.60;;;24.00;62.30;;;;;;4936220;29;20475;-77
2022/06/03 11:52:21;;;;;;;3.75;2.88;;;23.50;63.00;;;;;;4934430;29;20031;-77
2022/06/03 11:54:49;;;;;;;3.83;2.58;;;23.50;63.70;;;;;;4935048;29;20036;-77
2022/06/03 11:57:15;;;;;;;4.55;2.47;;;23.60;64.50;;;;;;4950611;29;20502;-77
2022/06/03 11:59:59;;;;;;;3.45;2.75;;;23.50;64.40;;;;;;4936137;29;20032;-77
2022/06/03 12:02:38;;;;;;;4.57;2.55;;;23.40;64.70;;;;;;4935932;29;20028;-77
2022/06/03 12:05:16;;;;;;;6.70;2.70;;;23.30;64.90;;;;;;4953767;29;20042;-77
2022/06/03 12:07:50;;;;;;;7.00;2.80;;;23.20;65.60;;;;;;4953672;28;20035;-77
2022/06/03 12:10:25;;;;;;;5.18;3.13;;;23.10;65.80;;;;;;4953975;28;20029;-77
2022/06/03 12:13:17;;;;;;;4.80;3.10;;;23.10;66.30;;;;;;4954684;28;20031;-77
2022/06/03 12:15:58;;;;;;;5.07;3.15;;;23.10;67.80;;;;;;4955483;28;20635;-77
2022/06/03 12:18:37;;;;;;;4.70;2.78;;;23.00;66.70;;;;;;4957813;28;20086;-77
2022/06/03 12:21:34;;;;;;;5.07;3.33;;;23.00;66.30;;;;;;4947052;28;20020;-77
2022/06/03 12:24:37;;;;;;;3.63;3.03;;;23.00;67.70;;;;;;4939599;29;20035;-77
2022/06/03 12:27:09;;;;;;;4.28;3.30;;;23.10;67.50;;;;;;4954847;28;20039;-77
2022/06/03 12:29:43;;;;;;;5.68;2.90;;;23.10;69.90;;;;;;4939345;29;20027;-77
2022/06/03 12:32:29;;;;;;;5.63;3.88;;;23.10;69.50;;;;;;4943167;29;20046;-77
2022/06/03 12:35:34;;;;;;;5.30;3.22;;;23.20;69.60;;;;;;4958594;28;20051;-77
2022/06/03 12:38:22;;;;;;;4.28;3.47;;;23.20;71.00;;;;;;4951747;28;20533;-77
2022/06/03 12:40:51;;;;;;;4.57;3.90;;;23.30;70.50;;;;;;4937763;29;20074;-77
2022/06/03 12:43:29;;;;;;;3.95;3.50;;;23.30;70.00;;;;;;4939219;29;20048;-77
2022/06/03 12:46:05;;;;;;;4.15;3.33;;;23.30;70.20;;;;;;4939146;29;20470;-77
2022/06/03 12:48:44;;;;;;;6.80;4.15;;;23.30;69.90;;;;;;4946551;29;20047;-77
2022/06/03 12:51:28;;;;;;;7.28;3.83;;;23.30;70.20;;;;;;4938013;29;20568;-77
2022/06/03 12:54:05;;;;;;;5.57;3.80;;;23.20;70.20;;;;;;4939403;29;20087;-77
2022/06/03 12:56:42;;;;;;;4.90;3.10;;;23.20;71.50;;;;;;4938994;29;20027;-77
2022/06/03 12:59:22;;;;;;;4.03;3.35;;;23.20;71.20;;;;;;4953699;29;20047;-77
2022/06/03 13:02:02;;;;;;;4.93;3.58;;;23.20;71.90;;;;;;4956828;28;20043;-77
2022/06/03 13:04:36;;;;;;;;;;;23.20;73.90;;;;;;4947328;29;20036;-77
2022/06/03 13:07:26;;;;;;;4.07;3.47;;;22.90;71.90;;;;;;4953518;29;19910;-77
2022/06/03 13:09:56;;;;;;;4.88;3.70;;;22.80;72.40;;;;;;4938572;29;20055;-77
2022/06/03 13:12:31;;;;;;;6.75;3.80;;;22.80;73.30;;;;;;4954057;29;20027;-77
2022/06/03 13:15:16;;;;;;;6.30;3.75;;;22.90;73.00;;;;;;4941884;28;20032;-77
2022/06/03 13:18:12;;;;;;;4.30;3.75;;;23.00;71.90;;;;;;4939761;29;20034;-77
2022/06/03 13:21:09;;;;;;;5.28;3.40;;;23.10;71.80;;;;;;4957913;29;20479;-77
2022/06/03 13:23:38;;;;;;;4.70;3.50;;;23.20;70.80;;;;;;4957672;28;20572;-77
2022/06/03 13:26:22;;;;;;;4.28;3.47;;;23.30;71.60;;;;;;4956347;28;20059;-77
2022/06/03 13:28:50;;;;;;;5.57;3.67;;;23.50;69.70;;;;;;4957647;28;20027;-77
2022/06/03 13:31:19;;;;;;;4.55;2.90;;;23.70;70.70;;;;;;4957704;28;20027;-77
2022/06/03 13:34:10;;;;;;;5.68;3.00;;;23.80;70.30;;;;;;4955095;28;20035;-77
2022/06/03 13:36:40;;;;;;;9.70;3.42;;;23.90;67.90;;;;;;4956234;29;20063;-77
2022/06/03 13:39:10;;;;;;;6.28;3.83;;;24.10;68.20;;;;;;4946704;29;20020;-77
2022/06/03 13:44:38;;;;;;;5.07;2.97;;;24.50;67.70;;;;;;4956289;29;20054;-77
2022/06/03 13:47:12;;;;;;;4.20;2.67;;;24.70;65.60;;;;;;4954045;28;20044;-77
2022/06/03 13:49:51;;;;;;;4.55;2.40;;;24.90;64.90;;;;;;4955109;29;20015;-77
2022/06/03 13:52:28;;;;;;;5.65;2.88;;;25.00;64.60;;;;;;4950426;29;20028;-77
2022/06/03 13:55:10;;;;;;;3.33;2.13;;;25.00;64.50;;;;;;4947025;29;20031;-77
2022/06/03 13:57:38;;;;;;;3.40;2.50;;;25.10;63.60;;;;;;4950979;28;20031;-77
2022/06/03 14:00:16;;;;;;;3.15;2.08;;;24.80;61.30;;;;;;4946025;28;20027;-77
2022/06/03 14:02:44;;;;;;;2.25;2.05;;;24.90;61.80;;;;;;4947046;28;20131;-77
2022/06/03 14:05:14;;;;;;;2.20;1.77;;;24.90;61.50;;;;;;4946173;29;20600;-77
2022/06/03 14:07:52;;;;;;;3.88;2.47;;;24.90;62.30;;;;;;4960379;28;20074;-77
2022/06/03 14:10:22;;;;;;;2.42;2.10;;;24.80;62.00;;;;;;4947341;29;20058;-77
2022/06/03 14:13:09;;;;;;;7.07;2.33;;;24.70;59.80;;;;;;4948375;29;20410;-77
2022/06/03 14:15:50;;;;;;;2.58;2.00;;;24.80;59.60;;;;;;4954504;29;20027;-77
2022/06/03 14:18:44;;;;;;;3.05;2.40;;;25.10;61.30;;;;;;4953250;29;20034;-77
2022/06/03 14:21:17;;;;;;;3.42;2.00;;;25.30;61.10;;;;;;4955174;29;20027;-77
2022/06/03 14:23:45;;;;;;;4.18;1.80;;;25.20;60.80;;;;;;4954095;28;20035;-77
2022/06/03 14:26:23;;;;;;;2.63;2.10;;;25.20;61.50;;;;;;4955195;29;20019;-77
2022/06/03 14:29:32;;;;;;;3.53;2.42;;;25.20;60.40;;;;;;4952550;29;20020;-77